.
WxDataArchive / Data Records for 2013-08-23
2013-08-22 August 2013 2013-08-24

Data Records for Friday, 23 August 2013

Time	Temp	Chill	HIndex	Humid	Dewpt	 Wind 	HiWind	WindDir	Rain 	Barom 
-----	----	-----	------	-----	-----	------	------	-------	-----	----- 
00:00	69.6	69.6	69.6	89	66.2	1	3	292	0.00	30.041 
00:05	69.6	69.6	69.6	89	66.2	0	3	292	0.00	30.041 
00:10	69.6	69.6	69.6	89	66.2	0	2	292	0.00	30.041 
00:15	69.6	69.6	69.6	89	66.2	0	3	292	0.00	30.043 
00:20	69.6	69.6	69.6	89	66.2	1	4	270	0.00	30.043 
00:25	69.4	69.4	69.4	89	66.0	0	2	270	0.00	30.043 
00:30	69.4	69.4	69.4	89	66.0	0	1	270	0.00	30.046 
00:35	69.4	69.4	69.4	89	66.0	0	3	292	0.00	30.046 
00:40	69.4	69.4	69.4	89	66.0	0	2	292	0.00	30.046 
00:45	69.3	69.3	69.3	90	66.2	0	2	292	0.00	30.058 
00:50	69.3	69.3	69.3	90	66.2	0	1	292	0.00	30.058 
00:55	69.3	69.3	69.3	90	66.2	0	1	292	0.00	30.058 
01:00	69.3	69.3	69.3	90	66.2	0	1	292	0.00	30.058 
01:05	69.3	69.3	69.3	90	66.2	0	1	292	0.00	30.058 
01:10	69.3	69.3	69.3	90	66.2	0	1	292	0.00	30.058 
01:15	69.1	69.1	69.1	90	66.0	0	1	292	0.00	30.060 
01:20	69.1	69.1	69.1	90	66.0	0	1	292	0.00	30.060 
01:25	69.1	69.1	69.1	90	66.0	0	2	292	0.00	30.060 
01:30	69.1	69.1	69.1	90	66.0	0	2	292	0.00	30.061 
01:35	69.1	69.1	69.1	90	66.0	0	2	292	0.00	30.061 
01:40	69.1	69.1	69.1	90	66.0	0	2	292	0.00	30.061 
01:45	69.1	69.1	69.1	90	66.0	0	3	292	0.00	30.060 
01:50	68.9	68.9	68.9	89	65.5	0	1	292	0.00	30.060 
01:55	68.9	68.9	68.9	89	65.5	0	1	292	0.00	30.060 
02:00	68.9	68.9	68.9	89	65.5	0	3	292	0.00	30.059 
02:05	68.9	68.9	68.9	89	65.5	0	1	292	0.00	30.059 
02:10	68.9	68.9	68.9	89	65.5	0	1	292	0.00	30.059 
02:15	68.9	68.9	68.9	89	65.5	0	1	292	0.00	30.058 
02:20	68.9	68.9	68.9	89	65.5	0	1	292	0.00	30.058 
02:25	68.9	68.9	68.9	88	65.2	0	1	292	0.00	30.058 
02:30	68.9	68.9	68.9	88	65.2	0	1	292	0.00	30.055 
02:35	68.9	68.9	68.9	88	65.2	0	1	292	0.00	30.055 
02:40	68.8	68.8	68.8	88	65.1	0	1	292	0.00	30.055 
02:45	68.8	68.8	68.8	88	65.1	0	1	292	0.00	30.051 
02:50	68.8	68.8	68.8	88	65.1	0	1	292	0.00	30.051 
02:55	68.8	68.8	68.8	88	65.1	0	1	292	0.00	30.051 
03:00	68.8	68.8	68.8	88	65.1	0	1	292	0.00	30.051 
03:05	68.8	68.8	68.8	88	65.1	0	2	292	0.00	30.051 
03:10	68.6	68.6	68.6	88	64.9	0	2	292	0.00	30.051 
03:15	68.6	68.6	68.6	88	64.9	0	1	292	0.00	30.048 
03:20	68.6	68.6	68.6	88	64.9	0	1	292	0.00	30.048 
03:25	68.4	68.4	68.4	88	64.7	0	1	292	0.00	30.048 
03:30	68.3	68.3	68.3	88	64.6	0	1	292	0.00	30.046 
03:35	68.1	68.1	68.1	88	64.4	0	1	292	0.00	30.046 
03:40	67.9	67.9	67.9	89	64.5	0	1	292	0.00	30.046 
03:45	67.8	67.8	67.8	89	64.4	0	1	292	0.00	30.045 
03:50	67.6	67.6	67.6	89	64.2	0	1	292	0.00	30.045 
03:55	67.6	67.6	67.6	90	64.6	0	1	292	0.00	30.045 
04:00	67.6	67.6	67.6	90	64.6	0	1	292	0.00	30.038 
04:05	67.4	67.4	67.4	90	64.4	0	1	292	0.00	30.038 
04:10	67.4	67.4	67.4	90	64.4	0	1	292	0.00	30.038 
04:15	67.4	67.4	67.4	90	64.4	0	1	292	0.00	30.034 
04:20	67.3	67.3	67.3	90	64.3	0	1	292	0.00	30.034 
04:25	67.3	67.3	67.3	91	64.6	0	1	292	0.00	30.034 
04:30	67.1	67.1	67.1	91	64.4	0	0	---	0.00	30.033 
04:35	66.9	66.9	66.9	91	64.2	0	1	292	0.00	30.033 
04:40	66.9	66.9	66.9	91	64.2	0	0	---	0.00	30.033 
04:45	66.8	66.8	66.8	91	64.1	0	1	292	0.00	30.036 
04:50	66.8	66.8	66.8	92	64.4	0	1	292	0.00	30.036 
04:55	66.8	66.8	66.8	92	64.4	0	0	---	0.00	30.036 
05:00	66.8	66.8	66.8	92	64.4	0	2	292	0.00	30.036 
05:05	66.8	66.8	66.8	92	64.4	0	1	292	0.00	30.036 
05:10	66.9	66.9	66.9	92	64.5	0	1	292	0.00	30.036 
05:15	66.8	66.8	66.8	92	64.4	0	2	292	0.00	30.041 
05:20	66.8	66.8	66.8	92	64.4	0	2	292	0.00	30.041 
05:25	66.8	66.8	66.8	93	64.7	0	1	292	0.00	30.041 
05:30	66.8	66.8	66.8	93	64.7	0	1	292	0.00	30.048 
05:35	66.6	66.6	66.6	93	64.5	0	2	292	0.00	30.048 
05:40	66.6	66.6	66.6	93	64.5	0	1	292	0.00	30.048 
05:45	66.6	66.6	66.6	93	64.5	0	1	292	0.00	30.050 
05:50	66.6	66.6	66.6	93	64.5	0	2	292	0.00	30.050 
05:55	66.4	66.4	66.4	93	64.3	0	3	292	0.00	30.050 
06:00	66.4	66.4	66.4	93	64.3	1	4	292	0.00	30.051 
06:05	66.4	66.4	66.4	93	64.3	0	2	292	0.00	30.051 
06:10	66.3	66.3	66.3	93	64.2	0	3	292	0.00	30.051 
06:15	66.3	66.3	66.3	93	64.2	0	2	292	0.00	30.057 
06:20	66.3	66.3	66.3	93	64.2	0	1	292	0.00	30.057 
06:25	66.3	66.3	66.3	93	64.2	0	2	292	0.00	30.057 
06:30	66.3	66.3	66.3	93	64.2	0	2	292	0.00	30.064 
06:35	66.1	66.1	66.1	93	64.0	0	1	292	0.00	30.064 
06:40	66.1	66.1	66.1	93	64.0	0	2	292	0.00	30.064 
06:45	66.0	66.0	66.0	93	63.9	0	1	292	0.00	30.066 
06:50	66.0	66.0	66.0	93	63.9	0	1	292	0.00	30.066 
06:55	66.0	66.0	66.0	93	63.9	0	1	292	0.00	30.066 
07:00	65.8	65.8	65.8	93	63.7	0	0	---	0.00	30.074 
07:05	65.8	65.8	65.8	93	63.7	0	0	---	0.00	30.074 
07:10	65.6	65.6	65.6	93	63.5	0	1	292	0.00	30.074 
07:15	65.6	65.6	65.6	93	63.5	0	0	---	0.00	30.082 
07:20	65.8	65.8	65.8	93	63.7	0	1	292	0.00	30.082 
07:25	65.8	65.8	65.8	93	63.7	0	0	---	0.00	30.082 
07:30	66.0	66.0	66.0	93	63.9	0	0	---	0.00	30.083 
07:35	66.0	66.0	66.0	93	63.9	0	1	292	0.00	30.083 
07:40	66.0	66.0	66.0	93	63.9	0	1	292	0.00	30.083 
07:45	66.1	66.1	66.1	93	64.0	0	1	292	0.00	30.091 
07:50	66.1	66.1	66.1	93	64.0	0	1	292	0.00	30.091 
07:55	66.1	66.1	66.1	93	64.0	0	1	292	0.00	30.091 
08:00	66.3	66.3	66.3	93	64.2	0	1	292	0.00	30.099 
08:05	66.4	66.4	66.4	93	64.3	0	1	292	0.00	30.099 
08:10	66.6	66.6	66.6	93	64.5	0	1	292	0.00	30.099 
08:15	66.8	66.8	66.8	93	64.7	0	2	292	0.00	30.098 
08:20	66.9	66.9	66.9	93	64.8	0	1	292	0.00	30.098 
08:25	67.1	67.1	67.1	92	64.7	0	2	292	0.00	30.098 
08:30	67.1	67.1	67.1	92	64.7	0	1	270	0.00	30.100 
08:35	67.3	67.3	67.3	91	64.6	0	1	270	0.00	30.100 
08:40	67.6	67.6	67.6	90	64.6	0	2	270	0.00	30.100 
08:45	67.8	67.8	67.8	89	64.4	0	1	270	0.00	30.102 
08:50	67.8	67.8	67.8	88	64.1	0	1	270	0.00	30.102 
08:55	67.9	67.9	67.9	87	63.9	0	2	270	0.00	30.102 
09:00	68.1	68.1	68.1	84	63.1	0	2	90	0.00	30.112 
09:05	68.4	68.4	68.4	83	63.0	0	5	90	0.00	30.112 
09:10	68.6	68.6	68.6	82	62.9	0	4	90	0.00	30.112 
09:15	68.9	68.9	68.9	81	62.8	0	3	90	0.00	30.112 
09:20	69.3	69.3	69.3	80	62.9	1	4	112	0.00	30.112 
09:25	69.4	69.4	69.4	78	62.2	1	5	112	0.00	30.112 
09:30	69.9	69.9	69.9	77	62.3	1	5	90	0.00	30.112 
09:35	70.3	70.3	70.3	76	62.4	1	3	112	0.00	30.112 
09:40	70.4	70.4	70.4	74	61.7	1	5	112	0.00	30.112 
09:45	70.8	70.8	70.8	74	62.1	1	3	112	0.00	30.110 
09:50	70.9	70.9	70.9	72	61.4	2	5	112	0.00	30.110 
09:55	71.3	71.3	71.3	71	61.4	2	5	112	0.00	30.110 
10:00	71.6	71.6	71.6	71	61.7	1	3	90	0.00	30.110 
10:05	72.0	72.0	72.0	71	62.1	1	3	90	0.00	30.110 
10:10	72.3	72.3	72.3	69	61.5	1	4	45	0.00	30.110 
10:15	72.7	72.7	72.7	67	61.1	2	4	90	0.00	30.111 
10:20	73.2	73.2	73.2	64	60.3	1	4	90	0.00	30.111 
10:25	73.7	73.7	73.7	63	60.3	2	4	90	0.00	30.111 
10:30	74.2	74.2	74.2	62	60.3	2	4	90	0.00	30.115 
10:35	74.4	74.4	74.4	62	60.5	2	6	112	0.00	30.115 
10:40	74.7	74.7	74.7	59	59.4	2	4	112	0.00	30.115 
10:45	75.3	75.3	77.6	57	59.0	2	6	90	0.00	30.114 
10:50	75.3	75.3	77.6	58	59.5	2	5	90	0.00	30.114 
10:55	75.6	75.6	77.8	58	59.8	2	4	90	0.00	30.114 
11:00	76.1	76.1	78.1	58	60.2	1	4	90	0.00	30.114 
11:05	76.5	76.5	78.4	54	58.6	3	5	90	0.00	30.114 
11:10	76.3	76.3	78.3	55	58.9	3	5	90	0.00	30.114 
11:15	76.5	76.5	78.4	56	59.6	2	4	90	0.00	30.114 
11:20	76.8	76.8	78.6	58	60.9	2	5	90	0.00	30.114 
11:25	77.2	77.2	78.9	55	59.8	1	4	90	0.00	30.114 
11:30	77.7	77.7	79.1	52	58.6	1	3	112	0.00	30.116 
11:35	77.9	77.9	79.2	51	58.3	3	5	90	0.00	30.116 
11:40	77.9	77.9	79.2	50	57.7	2	4	112	0.00	30.116 
11:45	78.1	78.1	79.5	53	59.6	2	7	90	0.00	30.113 
11:50	78.3	78.3	79.7	54	60.3	2	7	90	0.00	30.113 
11:55	78.5	78.5	79.6	50	58.3	2	5	112	0.00	30.113 
12:00	78.6	78.6	79.7	50	58.4	1	4	135	0.00	30.114 
12:05	79.0	79.0	79.9	49	58.2	2	5	112	0.00	30.114 
12:10	79.4	79.4	80.3	50	59.1	2	4	112	0.00	30.114 
12:15	79.6	79.6	80.3	48	58.2	2	5	90	0.00	30.112 
12:20	79.6	79.6	80.4	49	58.7	2	4	112	0.00	30.112 
12:25	79.9	79.9	80.4	47	57.8	1	4	135	0.00	30.112 
12:30	80.1	80.1	80.7	48	58.6	1	5	68	0.00	30.109 
12:35	80.1	80.1	80.5	46	57.4	2	5	112	0.00	30.109 
12:40	80.3	80.3	80.8	47	58.2	1	4	112	0.00	30.109 
12:45	80.5	80.5	81.3	50	60.1	2	5	90	0.00	30.106 
12:50	80.5	80.5	81.0	48	59.0	1	3	22	0.00	30.106 
12:55	80.9	80.9	81.3	47	58.8	2	5	45	0.00	30.106 
13:00	81.1	81.1	81.5	47	58.9	1	5	90	0.00	30.106 
13:05	81.2	81.2	81.5	46	58.4	1	5	90	0.00	30.106 
13:10	81.2	81.2	81.6	47	59.0	2	6	90	0.00	30.106 
13:15	81.2	81.2	81.5	46	58.4	2	5	112	0.00	30.106 
13:20	81.2	81.2	81.5	46	58.4	2	5	112	0.00	30.106 
13:25	81.8	81.8	81.9	45	58.4	1	3	68	0.00	30.106 
13:30	82.2	82.2	82.0	43	57.4	1	6	90	0.00	30.105 
13:35	82.4	82.4	82.3	44	58.3	1	5	90	0.00	30.105 
13:40	82.2	82.2	81.7	41	56.1	2	5	90	0.00	30.105 
13:45	82.2	82.2	82.0	43	57.4	2	5	90	0.00	30.104 
13:50	82.2	82.2	82.0	43	57.4	1	6	90	0.00	30.104 
13:55	82.4	82.4	81.7	39	54.9	2	7	112	0.00	30.104 
14:00	82.2	82.2	81.4	38	54.0	2	4	112	0.00	30.105 
14:05	82.6	82.6	81.7	38	54.4	0	2	112	0.00	30.105 
14:10	82.8	82.8	81.9	38	54.6	1	3	112	0.00	30.105 
14:15	83.0	83.0	82.1	38	54.7	2	4	112	0.00	30.103 
14:20	82.8	82.8	82.2	40	56.0	1	6	112	0.00	30.103 
14:25	82.4	82.4	81.7	39	54.9	3	7	90	0.00	30.103 
14:30	82.4	82.4	81.4	37	53.5	2	7	112	0.00	30.102 
14:35	82.6	82.6	82.1	41	56.5	1	4	112	0.00	30.102 
14:40	82.8	82.8	82.0	39	55.3	1	6	68	0.00	30.102 
14:45	82.8	82.8	82.0	39	55.3	3	7	90	0.00	30.096 
14:50	82.4	82.4	81.9	41	56.3	2	6	90	0.00	30.096 
14:55	82.6	82.6	81.7	38	54.4	2	6	90	0.00	30.096 
15:00	82.6	82.6	81.6	37	53.7	2	5	90	0.00	30.093 
15:05	82.4	82.4	81.4	37	53.5	3	9	90	0.00	30.093 
15:10	82.6	82.6	81.6	37	53.7	1	5	135	0.00	30.093 
15:15	83.0	83.0	82.0	37	54.0	3	6	90	0.00	30.091 
15:20	83.0	83.0	82.0	37	54.0	2	5	90	0.00	30.091 
15:25	83.0	83.0	82.2	39	55.5	2	6	90	0.00	30.091 
15:30	83.2	83.2	82.0	36	53.4	2	4	90	0.00	30.092 
15:35	82.8	82.8	81.8	37	53.8	2	5	90	0.00	30.092 
15:40	82.8	82.8	81.9	38	54.6	1	5	68	0.00	30.092 
15:45	83.0	83.0	82.1	38	54.7	1	2	90	0.00	30.089 
15:50	83.2	83.2	82.4	39	55.6	1	4	90	0.00	30.089 
15:55	83.4	83.4	82.4	38	55.1	1	5	90	0.00	30.089 
16:00	83.4	83.4	82.7	40	56.5	1	3	90	0.00	30.086 
16:05	83.4	83.4	82.7	40	56.5	1	3	90	0.00	30.086 
16:10	83.2	83.2	82.3	38	54.9	2	5	90	0.00	30.086 
16:15	83.0	83.0	81.8	36	53.3	2	6	112	0.00	30.080 
16:20	82.6	82.6	81.6	37	53.7	3	5	112	0.00	30.080 
16:25	82.2	82.2	81.5	39	54.7	2	7	90	0.00	30.080 
16:30	82.2	82.2	81.2	36	52.6	2	6	90	0.00	30.078 
16:35	82.2	82.2	81.4	38	54.0	2	5	90	0.00	30.078 
16:40	82.4	82.4	81.7	39	54.9	1	5	90	0.00	30.078 
16:45	82.6	82.6	81.8	39	55.1	2	5	90	0.00	30.075 
16:50	82.6	82.6	81.5	36	52.9	2	7	90	0.00	30.075 
16:55	82.6	82.6	81.7	38	54.4	2	5	90	0.00	30.075 
17:00	82.8	82.8	81.7	36	53.1	2	6	112	0.00	30.073 
17:05	82.8	82.8	81.6	35	52.3	1	2	112	0.00	30.073 
17:10	82.6	82.6	81.4	35	52.1	2	6	90	0.00	30.073 
17:15	82.4	82.4	81.3	36	52.7	1	5	90	0.00	30.075 
17:20	82.2	82.2	81.2	36	52.6	2	7	90	0.00	30.075 
17:25	82.0	82.0	81.1	37	53.1	2	5	90	0.00	30.075 
17:30	82.0	82.0	81.0	36	52.4	1	4	90	0.00	30.075 
17:35	81.8	81.8	80.8	35	51.4	3	6	90	0.00	30.075 
17:40	81.6	81.6	80.7	36	52.0	2	5	90	0.00	30.075 
17:45	81.6	81.6	80.8	37	52.8	0	3	90	0.00	30.077 
17:50	81.6	81.6	80.6	35	51.3	2	5	90	0.00	30.077 
17:55	81.4	81.4	80.7	37	52.6	2	5	90	0.00	30.077 
18:00	81.4	81.4	80.7	37	52.6	2	5	90	0.00	30.080 
18:05	81.2	81.2	80.3	35	50.9	1	4	90	0.00	30.080 
18:10	81.1	81.1	80.3	35	50.8	2	7	90	0.00	30.080 
18:15	80.9	80.9	80.4	38	52.9	1	3	112	0.00	30.080 
18:20	80.7	80.7	80.1	36	51.2	1	3	112	0.00	30.080 
18:25	80.5	80.5	79.9	35	50.3	2	6	112	0.00	30.080 
18:30	80.3	80.3	79.8	36	50.9	2	6	112	0.00	30.084 
18:35	80.1	80.1	79.7	36	50.7	2	5	68	0.00	30.084 
18:40	79.9	79.9	79.6	36	50.5	1	6	90	0.00	30.084 
18:45	79.9	79.9	79.6	37	51.3	1	3	90	0.00	30.085 
18:50	79.8	79.8	79.5	36	50.4	2	5	90	0.00	30.085 
18:55	79.8	79.8	79.6	38	51.9	1	5	90	0.00	30.085 
19:00	79.6	79.6	79.4	37	51.0	1	4	90	0.00	30.085 
19:05	79.4	79.4	79.5	39	52.3	1	4	90	0.00	30.085 
19:10	79.2	79.2	79.3	38	51.4	2	4	112	0.00	30.085 
19:15	79.2	79.2	79.3	39	52.1	1	3	112	0.00	30.086 
19:20	78.8	78.8	79.1	39	51.7	0	1	112	0.00	30.086 
19:25	78.6	78.6	79.1	41	52.9	0	2	112	0.00	30.086 
19:30	78.3	78.3	79.0	42	53.3	0	2	112	0.00	30.086 
19:35	77.9	77.9	78.8	43	53.6	0	2	112	0.00	30.086 
19:40	77.7	77.7	78.8	44	54.0	0	1	112	0.00	30.086 
19:45	77.4	77.4	78.6	44	53.8	0	1	112	0.00	30.089 
19:50	77.2	77.2	78.5	45	54.2	0	1	112	0.00	30.089 
19:55	76.8	76.8	78.4	46	54.4	0	0	---	0.00	30.089 
20:00	76.5	76.5	78.2	46	54.2	0	2	112	0.00	30.095 
20:05	76.1	76.1	78.1	47	54.4	0	1	112	0.00	30.095 
20:10	75.8	75.8	77.9	47	54.1	0	0	---	0.00	30.095 
20:15	75.4	75.4	77.8	47	53.7	0	1	112	0.00	30.096 
20:20	75.1	75.1	77.7	47	53.5	0	1	112	0.00	30.096 
20:25	74.6	74.6	74.6	47	53.0	0	1	112	0.00	30.096 
20:30	74.2	74.2	74.2	48	53.2	0	1	112	0.00	30.100 
20:35	73.9	73.9	73.9	49	53.5	0	0	---	0.00	30.100 
20:40	73.5	73.5	73.5	50	53.7	0	0	---	0.00	30.100 
20:45	73.2	73.2	73.2	50	53.4	0	0	---	0.00	30.107 
20:50	72.8	72.8	72.8	52	54.1	0	0	---	0.00	30.107 
20:55	72.3	72.3	72.3	53	54.2	0	0	---	0.00	30.107 
21:00	71.6	71.6	71.6	54	54.1	0	0	---	0.00	30.112 
21:05	71.3	71.3	71.3	54	53.8	0	0	---	0.00	30.112 
21:10	70.8	70.8	70.8	55	53.8	0	0	---	0.00	30.112 
21:15	70.4	70.4	70.4	56	53.9	0	0	---	0.00	30.116 
21:20	69.9	69.9	69.9	57	54.0	0	0	---	0.00	30.116 
21:25	69.6	69.6	69.6	58	54.2	0	0	---	0.00	30.116 
21:30	69.3	69.3	69.3	58	53.9	0	0	---	0.00	30.128 
21:35	68.9	68.9	68.9	59	54.0	0	0	---	0.00	30.128 
21:40	68.8	68.8	68.8	60	54.3	0	0	---	0.00	30.128 
21:45	68.4	68.4	68.4	60	54.0	0	0	---	0.00	30.138 
21:50	68.1	68.1	68.1	61	54.1	0	0	---	0.00	30.138 
21:55	67.8	67.8	67.8	62	54.3	0	0	---	0.00	30.138 
22:00	67.4	67.4	67.4	62	53.9	0	0	---	0.00	30.145 
22:05	67.1	67.1	67.1	63	54.1	0	0	---	0.00	30.145 
22:10	66.8	66.8	66.8	64	54.2	0	0	---	0.00	30.145 
22:15	66.4	66.4	66.4	65	54.3	0	0	---	0.00	30.144 
22:20	66.3	66.3	66.3	65	54.2	0	0	---	0.00	30.144 
22:25	66.0	66.0	66.0	66	54.3	0	0	---	0.00	30.144 
22:30	65.6	65.6	65.6	67	54.3	0	0	---	0.00	30.149 
22:35	65.5	65.5	65.5	68	54.7	0	0	---	0.00	30.149 
22:40	65.3	65.3	65.3	69	54.9	0	0	---	0.00	30.149 
22:45	65.2	65.2	65.2	69	54.8	0	0	---	0.00	30.151 
22:50	64.8	64.8	64.8	70	54.8	0	0	---	0.00	30.151 
22:55	64.7	64.7	64.7	71	55.1	0	0	---	0.00	30.151 
23:00	64.3	64.3	64.3	72	55.1	0	0	---	0.00	30.151 
23:05	64.0	64.0	64.0	73	55.2	0	0	---	0.00	30.151 
23:10	63.9	63.9	63.9	73	55.1	0	0	---	0.00	30.151 
23:15	63.7	63.7	63.7	74	55.3	0	0	---	0.00	30.149 
23:20	63.7	63.7	63.7	74	55.3	0	0	---	0.00	30.149 
23:25	63.5	63.5	63.5	74	55.1	0	0	---	0.00	30.149 
23:30	63.4	63.4	63.4	75	55.3	0	0	---	0.00	30.157 
23:35	63.2	63.2	63.2	75	55.1	0	0	---	0.00	30.157 
23:40	63.1	63.1	63.1	76	55.4	0	0	---	0.00	30.157 
23:45	62.9	62.9	62.9	77	55.6	0	0	---	0.00	30.158 
23:50	62.6	62.6	62.6	77	55.3	0	0	---	0.00	30.158 
23:55	62.4	62.4	62.4	77	55.1	0	0	---	0.00	30.158 

CoCoRaHS
IN-AL-39
A2 Web Hosting
Creative Commons License
GoDaddy
search engine by freefind advanced

loaded 2018-11-22 05:22:55 • last modified 2010-11-18 10:43:29
Privacy PolicyDisclaimer
• wx.awcolley.com is powered by PmWiki v.2002016 •
• all content (unless otherwise noted) © 2018 A W Colley